sensor_id;sensor_type;location;lat;lon;timestamp;P1;durP1;ratioP1;P2;durP2;ratioP2
48813;SDS011;34634;44.108;3.074;2022-10-30T00:02:06;7.40;;;3.78;;
48813;SDS011;34634;44.108;3.074;2022-10-30T00:04:32;8.40;;;3.40;;
48813;SDS011;34634;44.108;3.074;2022-10-30T00:06:58;13.30;;;4.03;;
48813;SDS011;34634;44.108;3.074;2022-10-30T00:09:25;10.38;;;3.95;;
48813;SDS011;34634;44.108;3.074;2022-10-30T00:11:51;8.00;;;3.50;;
48813;SDS011;34634;44.108;3.074;2022-10-30T00:14:17;9.38;;;3.58;;
48813;SDS011;34634;44.108;3.074;2022-10-30T00:16:44;8.90;;;3.42;;
48813;SDS011;34634;44.108;3.074;2022-10-30T00:19:10;10.63;;;3.75;;
48813;SDS011;34634;44.108;3.074;2022-10-30T00:21:36;6.82;;;3.20;;
48813;SDS011;34634;44.108;3.074;2022-10-30T00:24:03;8.27;;;3.70;;
48813;SDS011;34634;44.108;3.074;2022-10-30T00:26:29;7.60;;;3.58;;
48813;SDS011;34634;44.108;3.074;2022-10-30T00:28:56;9.32;;;3.47;;
48813;SDS011;34634;44.108;3.074;2022-10-30T00:31:23;7.80;;;3.67;;
48813;SDS011;34634;44.108;3.074;2022-10-30T00:33:50;11.25;;;3.63;;
48813;SDS011;34634;44.108;3.074;2022-10-30T00:36:16;10.10;;;3.25;;
48813;SDS011;34634;44.108;3.074;2022-10-30T00:38:43;12.73;;;4.00;;
48813;SDS011;34634;44.108;3.074;2022-10-30T00:41:20;9.95;;;3.70;;
48813;SDS011;34634;44.108;3.074;2022-10-30T00:43:46;6.80;;;3.75;;
48813;SDS011;34634;44.108;3.074;2022-10-30T00:46:26;10.35;;;4.50;;
48813;SDS011;34634;44.108;3.074;2022-10-30T00:49:15;10.75;;;4.38;;
48813;SDS011;34634;44.108;3.074;2022-10-30T00:51:42;15.10;;;5.60;;
48813;SDS011;34634;44.108;3.074;2022-10-30T00:54:11;16.33;;;5.80;;
48813;SDS011;34634;44.108;3.074;2022-10-30T00:56:39;21.50;;;6.13;;
48813;SDS011;34634;44.108;3.074;2022-10-30T00:59:07;15.48;;;5.53;;
48813;SDS011;34634;44.108;3.074;2022-10-30T01:01:35;16.88;;;5.57;;
48813;SDS011;34634;44.108;3.074;2022-10-30T01:04:03;15.38;;;5.78;;
48813;SDS011;34634;44.108;3.074;2022-10-30T01:06:31;18.38;;;6.72;;
48813;SDS011;34634;44.108;3.074;2022-10-30T01:08:58;15.82;;;6.20;;
48813;SDS011;34634;44.108;3.074;2022-10-30T01:11:24;16.55;;;7.28;;
48813;SDS011;34634;44.108;3.074;2022-10-30T01:13:51;27.92;;;7.47;;
48813;SDS011;34634;44.108;3.074;2022-10-30T01:26:45;22.27;;;6.93;;
48813;SDS011;34634;44.108;3.074;2022-10-30T01:29:28;25.48;;;7.85;;
48813;SDS011;34634;44.108;3.074;2022-10-30T01:32:14;26.70;;;8.40;;
48813;SDS011;34634;44.108;3.074;2022-10-30T01:34:46;16.05;;;6.90;;
48813;SDS011;34634;44.108;3.074;2022-10-30T01:39:41;14.38;;;6.47;;
48813;SDS011;34634;44.108;3.074;2022-10-30T01:44:53;20.38;;;7.18;;
48813;SDS011;34634;44.108;3.074;2022-10-30T01:49:59;28.38;;;8.52;;
48813;SDS011;34634;44.108;3.074;2022-10-30T01:52:32;29.65;;;8.43;;
48813;SDS011;34634;44.108;3.074;2022-10-30T02:00:05;23.23;;;8.57;;
48813;SDS011;34634;44.108;3.074;2022-10-30T02:02:32;21.45;;;7.35;;
48813;SDS011;34634;44.108;3.074;2022-10-30T02:04:59;31.38;;;7.90;;
48813;SDS011;34634;44.108;3.074;2022-10-30T02:07:26;22.05;;;7.68;;
48813;SDS011;34634;44.108;3.074;2022-10-30T02:09:52;22.45;;;8.00;;
48813;SDS011;34634;44.108;3.074;2022-10-30T02:12:19;21.27;;;8.00;;
48813;SDS011;34634;44.108;3.074;2022-10-30T02:14:47;21.55;;;7.55;;
48813;SDS011;34634;44.108;3.074;2022-10-30T02:17:15;23.83;;;7.70;;
48813;SDS011;34634;44.108;3.074;2022-10-30T02:19:41;24.45;;;7.82;;
48813;SDS011;34634;44.108;3.074;2022-10-30T02:22:08;28.25;;;8.07;;
48813;SDS011;34634;44.108;3.074;2022-10-30T02:24:34;25.90;;;7.80;;
48813;SDS011;34634;44.108;3.074;2022-10-30T02:27:00;26.55;;;8.65;;
48813;SDS011;34634;44.108;3.074;2022-10-30T02:29:27;25.63;;;8.45;;
48813;SDS011;34634;44.108;3.074;2022-10-30T02:31:53;19.20;;;7.28;;
48813;SDS011;34634;44.108;3.074;2022-10-30T02:34:20;22.02;;;8.20;;
48813;SDS011;34634;44.108;3.074;2022-10-30T02:36:46;23.75;;;7.80;;
48813;SDS011;34634;44.108;3.074;2022-10-30T02:39:12;22.17;;;7.85;;
48813;SDS011;34634;44.108;3.074;2022-10-30T02:41:39;18.92;;;7.63;;
48813;SDS011;34634;44.108;3.074;2022-10-30T02:44:05;21.75;;;7.57;;
48813;SDS011;34634;44.108;3.074;2022-10-30T02:46:32;20.40;;;7.82;;
48813;SDS011;34634;44.108;3.074;2022-10-30T02:48:59;20.77;;;7.47;;
48813;SDS011;34634;44.108;3.074;2022-10-30T02:51:25;20.67;;;7.13;;
48813;SDS011;34634;44.108;3.074;2022-10-30T02:53:52;20.95;;;7.63;;
48813;SDS011;34634;44.108;3.074;2022-10-30T02:56:18;20.63;;;7.18;;
48813;SDS011;34634;44.108;3.074;2022-10-30T02:58:44;21.40;;;7.32;;
48813;SDS011;34634;44.108;3.074;2022-10-30T03:01:12;25.90;;;6.68;;
48813;SDS011;34634;44.108;3.074;2022-10-30T03:03:39;22.00;;;6.72;;
48813;SDS011;34634;44.108;3.074;2022-10-30T03:06:07;16.90;;;6.35;;
48813;SDS011;34634;44.108;3.074;2022-10-30T03:08:33;19.48;;;5.63;;
48813;SDS011;34634;44.108;3.074;2022-10-30T03:11:04;14.05;;;5.47;;
48813;SDS011;34634;44.108;3.074;2022-10-30T03:13:31;15.70;;;4.75;;
48813;SDS011;34634;44.108;3.074;2022-10-30T03:16:08;14.65;;;5.18;;
48813;SDS011;34634;44.108;3.074;2022-10-30T03:18:35;20.10;;;5.43;;
48813;SDS011;34634;44.108;3.074;2022-10-30T03:21:02;13.38;;;5.15;;
48813;SDS011;34634;44.108;3.074;2022-10-30T03:23:28;10.77;;;4.75;;
48813;SDS011;34634;44.108;3.074;2022-10-30T03:25:56;15.20;;;4.90;;
48813;SDS011;34634;44.108;3.074;2022-10-30T03:28:22;12.55;;;4.70;;
48813;SDS011;34634;44.108;3.074;2022-10-30T03:30:49;11.60;;;4.57;;
48813;SDS011;34634;44.108;3.074;2022-10-30T03:33:16;13.15;;;4.70;;
48813;SDS011;34634;44.108;3.074;2022-10-30T03:35:43;18.80;;;4.78;;
48813;SDS011;34634;44.108;3.074;2022-10-30T03:38:10;10.95;;;4.47;;
48813;SDS011;34634;44.108;3.074;2022-10-30T03:40:37;15.13;;;4.68;;
48813;SDS011;34634;44.108;3.074;2022-10-30T03:43:03;12.13;;;5.05;;
48813;SDS011;34634;44.108;3.074;2022-10-30T03:45:30;20.33;;;5.15;;
48813;SDS011;34634;44.108;3.074;2022-10-30T03:47:59;14.63;;;4.70;;
48813;SDS011;34634;44.108;3.074;2022-10-30T03:50:26;17.85;;;5.55;;
48813;SDS011;34634;44.108;3.074;2022-10-30T03:52:53;15.23;;;5.18;;
48813;SDS011;34634;44.108;3.074;2022-10-30T03:55:19;10.32;;;4.85;;
48813;SDS011;34634;44.108;3.074;2022-10-30T03:57:46;18.50;;;6.18;;
48813;SDS011;34634;44.108;3.074;2022-10-30T04:00:13;16.67;;;5.60;;
48813;SDS011;34634;44.108;3.074;2022-10-30T04:02:43;13.50;;;6.03;;
48813;SDS011;34634;44.108;3.074;2022-10-30T04:05:09;20.80;;;6.00;;
48813;SDS011;34634;44.108;3.074;2022-10-30T04:07:36;21.15;;;5.90;;
48813;SDS011;34634;44.108;3.074;2022-10-30T04:10:02;13.75;;;5.47;;
48813;SDS011;34634;44.108;3.074;2022-10-30T04:12:28;14.68;;;5.07;;
48813;SDS011;34634;44.108;3.074;2022-10-30T04:14:55;15.45;;;4.95;;
48813;SDS011;34634;44.108;3.074;2022-10-30T04:17:21;13.30;;;5.13;;
48813;SDS011;34634;44.108;3.074;2022-10-30T04:19:48;17.88;;;5.72;;
48813;SDS011;34634;44.108;3.074;2022-10-30T04:22:14;20.65;;;5.55;;
48813;SDS011;34634;44.108;3.074;2022-10-30T04:24:40;13.88;;;4.85;;
48813;SDS011;34634;44.108;3.074;2022-10-30T04:27:07;18.23;;;5.22;;
48813;SDS011;34634;44.108;3.074;2022-10-30T04:29:33;13.55;;;5.53;;
48813;SDS011;34634;44.108;3.074;2022-10-30T04:32:01;16.77;;;6.10;;
48813;SDS011;34634;44.108;3.074;2022-10-30T04:34:28;18.73;;;5.22;;
48813;SDS011;34634;44.108;3.074;2022-10-30T04:36:54;16.52;;;5.60;;
48813;SDS011;34634;44.108;3.074;2022-10-30T04:39:21;18.75;;;5.10;;
48813;SDS011;34634;44.108;3.074;2022-10-30T04:41:47;14.48;;;5.38;;
48813;SDS011;34634;44.108;3.074;2022-10-30T04:44:13;15.30;;;5.00;;
48813;SDS011;34634;44.108;3.074;2022-10-30T04:46:39;20.30;;;5.20;;
48813;SDS011;34634;44.108;3.074;2022-10-30T04:49:06;13.75;;;5.47;;
48813;SDS011;34634;44.108;3.074;2022-10-30T04:51:32;15.60;;;5.38;;
48813;SDS011;34634;44.108;3.074;2022-10-30T04:53:59;16.10;;;5.28;;
48813;SDS011;34634;44.108;3.074;2022-10-30T04:56:25;18.50;;;5.50;;
48813;SDS011;34634;44.108;3.074;2022-10-30T04:58:51;15.73;;;5.60;;
48813;SDS011;34634;44.108;3.074;2022-10-30T05:01:18;12.93;;;4.70;;
48813;SDS011;34634;44.108;3.074;2022-10-30T05:03:45;11.27;;;5.63;;
48813;SDS011;34634;44.108;3.074;2022-10-30T05:06:24;14.00;;;6.03;;
48813;SDS011;34634;44.108;3.074;2022-10-30T05:08:50;10.38;;;5.47;;
48813;SDS011;34634;44.108;3.074;2022-10-30T05:11:17;16.55;;;5.40;;
48813;SDS011;34634;44.108;3.074;2022-10-30T05:13:44;17.92;;;5.50;;
48813;SDS011;34634;44.108;3.074;2022-10-30T05:16:10;16.40;;;6.05;;
48813;SDS011;34634;44.108;3.074;2022-10-30T05:18:36;18.85;;;5.93;;
48813;SDS011;34634;44.108;3.074;2022-10-30T05:21:02;14.38;;;6.50;;
48813;SDS011;34634;44.108;3.074;2022-10-30T05:23:29;16.08;;;5.43;;
48813;SDS011;34634;44.108;3.074;2022-10-30T05:25:55;14.77;;;5.50;;
48813;SDS011;34634;44.108;3.074;2022-10-30T05:28:22;14.45;;;5.05;;
48813;SDS011;34634;44.108;3.074;2022-10-30T05:30:51;15.82;;;5.45;;
48813;SDS011;34634;44.108;3.074;2022-10-30T05:33:17;21.13;;;6.20;;
48813;SDS011;34634;44.108;3.074;2022-10-30T05:35:44;18.00;;;6.40;;
48813;SDS011;34634;44.108;3.074;2022-10-30T05:38:11;17.35;;;5.72;;
48813;SDS011;34634;44.108;3.074;2022-10-30T05:40:37;18.08;;;6.13;;
48813;SDS011;34634;44.108;3.074;2022-10-30T05:43:04;20.20;;;6.47;;
48813;SDS011;34634;44.108;3.074;2022-10-30T05:45:30;17.98;;;6.10;;
48813;SDS011;34634;44.108;3.074;2022-10-30T05:47:59;24.13;;;6.55;;
48813;SDS011;34634;44.108;3.074;2022-10-30T05:50:26;17.02;;;6.22;;
48813;SDS011;34634;44.108;3.074;2022-10-30T05:52:56;14.52;;;6.68;;
48813;SDS011;34634;44.108;3.074;2022-10-30T05:55:23;19.27;;;6.50;;
48813;SDS011;34634;44.108;3.074;2022-10-30T05:57:49;18.73;;;5.93;;
48813;SDS011;34634;44.108;3.074;2022-10-30T06:00:20;16.40;;;5.80;;
48813;SDS011;34634;44.108;3.074;2022-10-30T06:02:46;16.40;;;6.22;;
48813;SDS011;34634;44.108;3.074;2022-10-30T06:05:12;10.30;;;5.03;;
48813;SDS011;34634;44.108;3.074;2022-10-30T06:07:39;14.23;;;5.30;;
48813;SDS011;34634;44.108;3.074;2022-10-30T06:10:05;13.85;;;6.00;;
48813;SDS011;34634;44.108;3.074;2022-10-30T06:12:31;13.13;;;5.68;;
48813;SDS011;34634;44.108;3.074;2022-10-30T06:14:58;13.15;;;5.47;;
48813;SDS011;34634;44.108;3.074;2022-10-30T06:17:24;12.65;;;5.68;;
48813;SDS011;34634;44.108;3.074;2022-10-30T06:19:50;20.38;;;5.85;;
48813;SDS011;34634;44.108;3.074;2022-10-30T06:22:16;16.63;;;6.13;;
48813;SDS011;34634;44.108;3.074;2022-10-30T06:24:43;14.45;;;5.93;;
48813;SDS011;34634;44.108;3.074;2022-10-30T06:27:09;24.08;;;6.28;;
48813;SDS011;34634;44.108;3.074;2022-10-30T06:29:36;15.50;;;6.30;;
48813;SDS011;34634;44.108;3.074;2022-10-30T06:32:02;17.15;;;6.32;;
48813;SDS011;34634;44.108;3.074;2022-10-30T06:34:28;11.98;;;5.55;;
48813;SDS011;34634;44.108;3.074;2022-10-30T06:36:55;15.43;;;5.93;;
48813;SDS011;34634;44.108;3.074;2022-10-30T06:39:21;18.05;;;6.38;;
48813;SDS011;34634;44.108;3.074;2022-10-30T06:41:47;16.95;;;5.75;;
48813;SDS011;34634;44.108;3.074;2022-10-30T06:44:14;14.48;;;5.80;;
48813;SDS011;34634;44.108;3.074;2022-10-30T06:46:40;19.70;;;6.38;;
48813;SDS011;34634;44.108;3.074;2022-10-30T06:49:06;16.77;;;6.60;;
48813;SDS011;34634;44.108;3.074;2022-10-30T06:51:33;16.13;;;6.18;;
48813;SDS011;34634;44.108;3.074;2022-10-30T06:53:59;18.83;;;6.45;;
48813;SDS011;34634;44.108;3.074;2022-10-30T06:56:25;17.70;;;6.20;;
48813;SDS011;34634;44.108;3.074;2022-10-30T06:58:52;14.98;;;5.60;;
48813;SDS011;34634;44.108;3.074;2022-10-30T07:01:18;19.80;;;6.25;;
48813;SDS011;34634;44.108;3.074;2022-10-30T07:03:44;14.50;;;5.93;;
48813;SDS011;34634;44.108;3.074;2022-10-30T07:06:11;18.75;;;5.75;;
48813;SDS011;34634;44.108;3.074;2022-10-30T07:08:37;17.40;;;6.10;;
48813;SDS011;34634;44.108;3.074;2022-10-30T07:11:03;15.43;;;5.35;;
48813;SDS011;34634;44.108;3.074;2022-10-30T07:13:30;17.23;;;5.45;;
48813;SDS011;34634;44.108;3.074;2022-10-30T07:15:57;20.35;;;5.50;;
48813;SDS011;34634;44.108;3.074;2022-10-30T07:18:23;20.42;;;6.63;;
48813;SDS011;34634;44.108;3.074;2022-10-30T07:20:56;17.08;;;5.10;;
48813;SDS011;34634;44.108;3.074;2022-10-30T07:23:22;15.80;;;5.95;;
48813;SDS011;34634;44.108;3.074;2022-10-30T07:25:48;16.35;;;5.45;;
48813;SDS011;34634;44.108;3.074;2022-10-30T07:28:15;15.75;;;5.90;;
48813;SDS011;34634;44.108;3.074;2022-10-30T07:30:41;13.27;;;5.32;;
48813;SDS011;34634;44.108;3.074;2022-10-30T07:33:07;17.95;;;5.68;;
48813;SDS011;34634;44.108;3.074;2022-10-30T07:35:35;16.45;;;6.03;;
48813;SDS011;34634;44.108;3.074;2022-10-30T07:38:02;12.93;;;5.88;;
48813;SDS011;34634;44.108;3.074;2022-10-30T07:40:29;23.88;;;6.65;;
48813;SDS011;34634;44.108;3.074;2022-10-30T07:42:55;20.45;;;5.88;;
48813;SDS011;34634;44.108;3.074;2022-10-30T07:45:22;13.05;;;5.30;;
48813;SDS011;34634;44.108;3.074;2022-10-30T07:47:49;13.50;;;4.80;;
48813;SDS011;34634;44.108;3.074;2022-10-30T07:50:15;16.13;;;5.03;;
48813;SDS011;34634;44.108;3.074;2022-10-30T07:52:41;19.63;;;5.10;;
48813;SDS011;34634;44.108;3.074;2022-10-30T07:55:08;17.92;;;5.03;;
48813;SDS011;34634;44.108;3.074;2022-10-30T07:57:40;14.35;;;5.15;;
48813;SDS011;34634;44.108;3.074;2022-10-30T08:00:08;15.68;;;5.68;;
48813;SDS011;34634;44.108;3.074;2022-10-30T08:02:35;15.75;;;5.05;;
48813;SDS011;34634;44.108;3.074;2022-10-30T08:05:02;11.25;;;4.70;;
48813;SDS011;34634;44.108;3.074;2022-10-30T08:07:29;18.83;;;5.15;;
48813;SDS011;34634;44.108;3.074;2022-10-30T08:09:55;12.73;;;4.40;;
48813;SDS011;34634;44.108;3.074;2022-10-30T08:12:22;13.75;;;4.43;;
48813;SDS011;34634;44.108;3.074;2022-10-30T08:14:48;11.02;;;4.38;;
48813;SDS011;34634;44.108;3.074;2022-10-30T08:17:15;10.77;;;4.40;;
48813;SDS011;34634;44.108;3.074;2022-10-30T08:19:41;11.15;;;4.72;;
48813;SDS011;34634;44.108;3.074;2022-10-30T08:22:07;13.57;;;4.93;;
48813;SDS011;34634;44.108;3.074;2022-10-30T08:24:34;14.68;;;4.53;;
48813;SDS011;34634;44.108;3.074;2022-10-30T08:27:00;14.63;;;4.78;;
48813;SDS011;34634;44.108;3.074;2022-10-30T08:29:27;10.52;;;4.43;;
48813;SDS011;34634;44.108;3.074;2022-10-30T08:31:53;11.40;;;4.50;;
48813;SDS011;34634;44.108;3.074;2022-10-30T08:34:19;17.52;;;4.70;;
48813;SDS011;34634;44.108;3.074;2022-10-30T08:36:49;13.70;;;4.97;;
48813;SDS011;34634;44.108;3.074;2022-10-30T08:39:16;12.07;;;4.30;;
48813;SDS011;34634;44.108;3.074;2022-10-30T08:41:43;15.93;;;4.72;;
48813;SDS011;34634;44.108;3.074;2022-10-30T08:44:09;15.93;;;4.68;;
48813;SDS011;34634;44.108;3.074;2022-10-30T08:46:36;13.35;;;4.78;;
48813;SDS011;34634;44.108;3.074;2022-10-30T08:49:02;12.27;;;4.85;;
48813;SDS011;34634;44.108;3.074;2022-10-30T08:51:32;16.48;;;4.70;;
48813;SDS011;34634;44.108;3.074;2022-10-30T08:53:59;15.43;;;5.07;;
48813;SDS011;34634;44.108;3.074;2022-10-30T08:56:26;12.73;;;4.78;;
48813;SDS011;34634;44.108;3.074;2022-10-30T08:58:52;13.75;;;5.07;;
48813;SDS011;34634;44.108;3.074;2022-10-30T09:01:19;16.25;;;5.47;;
48813;SDS011;34634;44.108;3.074;2022-10-30T09:03:45;23.92;;;5.70;;
48813;SDS011;34634;44.108;3.074;2022-10-30T09:06:12;19.02;;;5.10;;
48813;SDS011;34634;44.108;3.074;2022-10-30T09:08:38;21.73;;;5.28;;
48813;SDS011;34634;44.108;3.074;2022-10-30T09:11:04;18.77;;;5.38;;
48813;SDS011;34634;44.108;3.074;2022-10-30T09:13:31;14.75;;;5.28;;
48813;SDS011;34634;44.108;3.074;2022-10-30T09:16:02;19.35;;;4.82;;
48813;SDS011;34634;44.108;3.074;2022-10-30T09:18:28;17.80;;;4.97;;
48813;SDS011;34634;44.108;3.074;2022-10-30T09:20:55;18.88;;;4.95;;
48813;SDS011;34634;44.108;3.074;2022-10-30T09:23:21;13.77;;;4.55;;
48813;SDS011;34634;44.108;3.074;2022-10-30T09:25:47;16.05;;;4.60;;
48813;SDS011;34634;44.108;3.074;2022-10-30T09:28:14;18.20;;;4.75;;
48813;SDS011;34634;44.108;3.074;2022-10-30T09:30:40;15.80;;;5.57;;
48813;SDS011;34634;44.108;3.074;2022-10-30T09:33:07;18.52;;;4.50;;
48813;SDS011;34634;44.108;3.074;2022-10-30T09:35:34;18.92;;;4.22;;
48813;SDS011;34634;44.108;3.074;2022-10-30T09:38:01;18.45;;;4.30;;
48813;SDS011;34634;44.108;3.074;2022-10-30T09:43:00;20.88;;;4.70;;
48813;SDS011;34634;44.108;3.074;2022-10-30T09:50:30;17.85;;;4.38;;
48813;SDS011;34634;44.108;3.074;2022-10-30T09:53:14;13.73;;;4.07;;
48813;SDS011;34634;44.108;3.074;2022-10-30T09:55:45;17.13;;;4.65;;
48813;SDS011;34634;44.108;3.074;2022-10-30T10:00:39;15.60;;;4.38;;
48813;SDS011;34634;44.108;3.074;2022-10-30T10:03:13;14.65;;;4.13;;
48813;SDS011;34634;44.108;3.074;2022-10-30T10:05:47;13.80;;;4.30;;
48813;SDS011;34634;44.108;3.074;2022-10-30T10:08:18;17.67;;;4.70;;
48813;SDS011;34634;44.108;3.074;2022-10-30T10:10:51;19.58;;;4.90;;
48813;SDS011;34634;44.108;3.074;2022-10-30T10:15:54;18.30;;;4.68;;
48813;SDS011;34634;44.108;3.074;2022-10-30T10:18:22;20.83;;;4.45;;
48813;SDS011;34634;44.108;3.074;2022-10-30T10:20:52;27.88;;;5.18;;
48813;SDS011;34634;44.108;3.074;2022-10-30T10:23:21;20.90;;;5.05;;
48813;SDS011;34634;44.108;3.074;2022-10-30T10:25:54;16.98;;;4.38;;
48813;SDS011;34634;44.108;3.074;2022-10-30T10:28:45;11.23;;;4.05;;
48813;SDS011;34634;44.108;3.074;2022-10-30T10:36:43;21.05;;;4.78;;
48813;SDS011;34634;44.108;3.074;2022-10-30T10:39:16;19.65;;;4.60;;
48813;SDS011;34634;44.108;3.074;2022-10-30T10:41:55;16.50;;;4.32;;
48813;SDS011;34634;44.108;3.074;2022-10-30T10:52:17;18.55;;;4.40;;
48813;SDS011;34634;44.108;3.074;2022-10-30T10:54:52;16.65;;;5.13;;
48813;SDS011;34634;44.108;3.074;2022-10-30T10:57:25;29.15;;;4.88;;
48813;SDS011;34634;44.108;3.074;2022-10-30T10:59:54;19.30;;;4.60;;
48813;SDS011;34634;44.108;3.074;2022-10-30T11:04:51;12.15;;;4.70;;
48813;SDS011;34634;44.108;3.074;2022-10-30T11:07:23;15.00;;;4.57;;
48813;SDS011;34634;44.108;3.074;2022-10-30T11:09:50;22.60;;;5.43;;
48813;SDS011;34634;44.108;3.074;2022-10-30T11:12:22;16.70;;;5.18;;
48813;SDS011;34634;44.108;3.074;2022-10-30T11:14:50;15.70;;;4.20;;
48813;SDS011;34634;44.108;3.074;2022-10-30T11:17:21;16.52;;;4.30;;
48813;SDS011;34634;44.108;3.074;2022-10-30T11:19:50;19.60;;;4.32;;
48813;SDS011;34634;44.108;3.074;2022-10-30T11:22:30;20.20;;;4.65;;
48813;SDS011;34634;44.108;3.074;2022-10-30T11:25:17;20.75;;;4.70;;
48813;SDS011;34634;44.108;3.074;2022-10-30T11:27:48;23.55;;;5.15;;
48813;SDS011;34634;44.108;3.074;2022-10-30T11:32:41;24.42;;;4.03;;
48813;SDS011;34634;44.108;3.074;2022-10-30T11:37:34;17.30;;;4.35;;
48813;SDS011;34634;44.108;3.074;2022-10-30T11:40:02;19.30;;;5.25;;
48813;SDS011;34634;44.108;3.074;2022-10-30T11:42:29;21.40;;;5.22;;
48813;SDS011;34634;44.108;3.074;2022-10-30T11:44:56;17.65;;;4.53;;
48813;SDS011;34634;44.108;3.074;2022-10-30T11:47:33;20.15;;;4.47;;
48813;SDS011;34634;44.108;3.074;2022-10-30T11:50:00;13.55;;;3.90;;
48813;SDS011;34634;44.108;3.074;2022-10-30T11:52:27;15.90;;;4.03;;
48813;SDS011;34634;44.108;3.074;2022-10-30T11:54:58;22.02;;;4.82;;
48813;SDS011;34634;44.108;3.074;2022-10-30T11:59:55;17.95;;;4.85;;
48813;SDS011;34634;44.108;3.074;2022-10-30T12:02:24;22.00;;;4.25;;
48813;SDS011;34634;44.108;3.074;2022-10-30T12:04:54;21.65;;;4.47;;
48813;SDS011;34634;44.108;3.074;2022-10-30T12:09:47;24.27;;;5.00;;
48813;SDS011;34634;44.108;3.074;2022-10-30T12:12:21;15.32;;;4.32;;
48813;SDS011;34634;44.108;3.074;2022-10-30T12:14:49;18.80;;;4.07;;
48813;SDS011;34634;44.108;3.074;2022-10-30T12:17:15;19.17;;;4.78;;
48813;SDS011;34634;44.108;3.074;2022-10-30T12:19:47;19.42;;;4.15;;
48813;SDS011;34634;44.108;3.074;2022-10-30T12:22:27;21.48;;;4.32;;
48813;SDS011;34634;44.108;3.074;2022-10-30T12:24:55;17.77;;;4.20;;
48813;SDS011;34634;44.108;3.074;2022-10-30T12:27:22;23.83;;;4.78;;
48813;SDS011;34634;44.108;3.074;2022-10-30T12:30:09;15.32;;;4.28;;
48813;SDS011;34634;44.108;3.074;2022-10-30T12:35:26;20.50;;;4.32;;
48813;SDS011;34634;44.108;3.074;2022-10-30T12:37:56;20.92;;;4.28;;
48813;SDS011;34634;44.108;3.074;2022-10-30T12:40:25;17.52;;;4.43;;
48813;SDS011;34634;44.108;3.074;2022-10-30T12:43:03;18.23;;;4.32;;
48813;SDS011;34634;44.108;3.074;2022-10-30T12:45:33;19.52;;;4.65;;
48813;SDS011;34634;44.108;3.074;2022-10-30T12:48:02;22.70;;;4.18;;
48813;SDS011;34634;44.108;3.074;2022-10-30T12:50:41;18.25;;;4.18;;
48813;SDS011;34634;44.108;3.074;2022-10-30T12:55:40;15.80;;;4.82;;
48813;SDS011;34634;44.108;3.074;2022-10-30T13:00:43;20.35;;;4.07;;
48813;SDS011;34634;44.108;3.074;2022-10-30T13:10:46;13.48;;;4.30;;
48813;SDS011;34634;44.108;3.074;2022-10-30T13:13:18;17.05;;;4.95;;
48813;SDS011;34634;44.108;3.074;2022-10-30T13:15:50;18.80;;;4.65;;
48813;SDS011;34634;44.108;3.074;2022-10-30T13:18:17;21.08;;;4.55;;
48813;SDS011;34634;44.108;3.074;2022-10-30T13:20:47;18.10;;;4.60;;
48813;SDS011;34634;44.108;3.074;2022-10-30T13:23:22;18.42;;;4.45;;
48813;SDS011;34634;44.108;3.074;2022-10-30T13:33:37;20.05;;;4.53;;
48813;SDS011;34634;44.108;3.074;2022-10-30T13:43:46;15.65;;;4.30;;
48813;SDS011;34634;44.108;3.074;2022-10-30T13:53:47;14.68;;;4.40;;
48813;SDS011;34634;44.108;3.074;2022-10-30T13:56:15;14.23;;;4.10;;
48813;SDS011;34634;44.108;3.074;2022-10-30T14:01:24;15.23;;;4.20;;
48813;SDS011;34634;44.108;3.074;2022-10-30T14:11:45;14.43;;;4.63;;
48813;SDS011;34634;44.108;3.074;2022-10-30T14:16:41;14.18;;;3.97;;
48813;SDS011;34634;44.108;3.074;2022-10-30T14:19:11;18.25;;;4.50;;
48813;SDS011;34634;44.108;3.074;2022-10-30T14:24:11;21.20;;;5.47;;
48813;SDS011;34634;44.108;3.074;2022-10-30T14:30:12;14.30;;;4.40;;
48813;SDS011;34634;44.108;3.074;2022-10-30T14:32:48;20.95;;;5.57;;
48813;SDS011;34634;44.108;3.074;2022-10-30T14:39:48;17.35;;;4.95;;
48813;SDS011;34634;44.108;3.074;2022-10-30T14:49:55;15.45;;;4.88;;
48813;SDS011;34634;44.108;3.074;2022-10-30T14:52:27;13.90;;;4.60;;
48813;SDS011;34634;44.108;3.074;2022-10-30T15:02:54;20.33;;;4.63;;
48813;SDS011;34634;44.108;3.074;2022-10-30T15:05:41;21.67;;;5.32;;
48813;SDS011;34634;44.108;3.074;2022-10-30T15:13:53;12.20;;;5.03;;
48813;SDS011;34634;44.108;3.074;2022-10-30T15:16:20;18.55;;;5.03;;
48813;SDS011;34634;44.108;3.074;2022-10-30T15:18:54;21.67;;;5.60;;
48813;SDS011;34634;44.108;3.074;2022-10-30T15:21:21;17.15;;;5.25;;
48813;SDS011;34634;44.108;3.074;2022-10-30T15:23:53;20.60;;;6.40;;
48813;SDS011;34634;44.108;3.074;2022-10-30T15:26:21;17.92;;;5.47;;
48813;SDS011;34634;44.108;3.074;2022-10-30T15:28:48;21.50;;;5.28;;
48813;SDS011;34634;44.108;3.074;2022-10-30T15:31:22;17.55;;;5.32;;
48813;SDS011;34634;44.108;3.074;2022-10-30T15:33:49;25.20;;;5.70;;
48813;SDS011;34634;44.108;3.074;2022-10-30T15:38:42;24.30;;;5.60;;
48813;SDS011;34634;44.108;3.074;2022-10-30T15:41:09;20.52;;;5.28;;
48813;SDS011;34634;44.108;3.074;2022-10-30T15:43:36;21.38;;;5.28;;
48813;SDS011;34634;44.108;3.074;2022-10-30T15:46:07;20.92;;;5.30;;
48813;SDS011;34634;44.108;3.074;2022-10-30T15:48:34;23.85;;;5.88;;
48813;SDS011;34634;44.108;3.074;2022-10-30T15:51:03;18.67;;;5.50;;
48813;SDS011;34634;44.108;3.074;2022-10-30T15:56:14;21.65;;;4.93;;
48813;SDS011;34634;44.108;3.074;2022-10-30T15:58:41;22.95;;;5.85;;
48813;SDS011;34634;44.108;3.074;2022-10-30T16:01:21;18.45;;;4.70;;
48813;SDS011;34634;44.108;3.074;2022-10-30T16:03:52;15.93;;;4.63;;
48813;SDS011;34634;44.108;3.074;2022-10-30T16:06:18;22.23;;;5.22;;
48813;SDS011;34634;44.108;3.074;2022-10-30T16:08:46;17.60;;;5.15;;
48813;SDS011;34634;44.108;3.074;2022-10-30T16:11:12;20.90;;;5.25;;
48813;SDS011;34634;44.108;3.074;2022-10-30T16:13:40;19.50;;;5.63;;
48813;SDS011;34634;44.108;3.074;2022-10-30T16:16:18;20.63;;;5.63;;
48813;SDS011;34634;44.108;3.074;2022-10-30T16:18:45;16.45;;;5.32;;
48813;SDS011;34634;44.108;3.074;2022-10-30T16:21:13;21.48;;;5.30;;
48813;SDS011;34634;44.108;3.074;2022-10-30T16:23:51;23.52;;;5.57;;
48813;SDS011;34634;44.108;3.074;2022-10-30T16:26:21;25.33;;;5.68;;
48813;SDS011;34634;44.108;3.074;2022-10-30T16:31:14;18.73;;;5.00;;
48813;SDS011;34634;44.108;3.074;2022-10-30T16:33:44;18.35;;;5.53;;
48813;SDS011;34634;44.108;3.074;2022-10-30T16:36:12;24.05;;;5.43;;
48813;SDS011;34634;44.108;3.074;2022-10-30T16:38:42;24.63;;;4.67;;
48813;SDS011;34634;44.108;3.074;2022-10-30T16:41:09;18.15;;;5.25;;
48813;SDS011;34634;44.108;3.074;2022-10-30T16:43:38;20.55;;;5.65;;
48813;SDS011;34634;44.108;3.074;2022-10-30T16:48:45;18.77;;;5.43;;
48813;SDS011;34634;44.108;3.074;2022-10-30T16:51:14;25.13;;;5.97;;
48813;SDS011;34634;44.108;3.074;2022-10-30T16:53:45;20.63;;;6.10;;
48813;SDS011;34634;44.108;3.074;2022-10-30T16:56:21;28.58;;;6.00;;
48813;SDS011;34634;44.108;3.074;2022-10-30T16:58:49;28.13;;;5.65;;
48813;SDS011;34634;44.108;3.074;2022-10-30T17:01:16;19.08;;;5.28;;
48813;SDS011;34634;44.108;3.074;2022-10-30T17:03:42;24.45;;;6.15;;
48813;SDS011;34634;44.108;3.074;2022-10-30T17:06:26;20.10;;;5.20;;
48813;SDS011;34634;44.108;3.074;2022-10-30T17:08:53;18.27;;;5.35;;
48813;SDS011;34634;44.108;3.074;2022-10-30T17:11:35;26.80;;;5.68;;
48813;SDS011;34634;44.108;3.074;2022-10-30T17:14:14;41.45;;;13.38;;
48813;SDS011;34634;44.108;3.074;2022-10-30T17:16:42;18.42;;;6.22;;
48813;SDS011;34634;44.108;3.074;2022-10-30T17:21:58;20.88;;;7.32;;